createdAt,value
2023-01-22T00:01:48.873Z,102741.09
2023-01-22T00:04:17.220Z,102741.59
2023-01-22T00:06:45.797Z,102758.66
2023-01-22T00:09:16.888Z,102751.28
2023-01-22T00:11:50.291Z,102747.25
2023-01-22T00:14:19.878Z,102743.19
2023-01-22T00:16:48.725Z,102750.56
2023-01-22T00:19:16.977Z,102737.78
2023-01-22T00:21:46.422Z,102748.31
2023-01-22T00:24:15.069Z,102747.25
2023-01-22T00:26:43.399Z,102738.09
2023-01-22T00:29:12.147Z,102749.28
2023-01-22T00:31:44.931Z,102745.28
2023-01-22T00:34:14.161Z,102752.34
2023-01-22T00:36:43.646Z,102762.34
2023-01-22T00:39:15.735Z,102771.56
2023-01-22T00:41:44.664Z,102764.31
2023-01-22T00:44:13.347Z,102748.41
2023-01-22T00:46:41.812Z,102771.25
2023-01-22T00:49:10.946Z,102767.34
2023-01-22T00:51:40.595Z,102777.25
2023-01-22T00:54:14.179Z,102773.38
2023-01-22T00:56:47.388Z,102774.13
2023-01-22T00:59:15.329Z,102772.03
2023-01-22T01:01:44.767Z,102771.13
2023-01-22T01:04:14.267Z,102744.78
2023-01-22T01:06:47.146Z,102764.50
2023-01-22T01:09:19.926Z,102761.22
2023-01-22T01:11:50.477Z,102775.06
2023-01-22T01:14:19.921Z,102777.19
2023-01-22T01:16:50.893Z,102733.50
2023-01-22T01:19:20.443Z,102777.22
2023-01-22T01:21:51.192Z,102777.72
2023-01-22T01:24:19.495Z,102785.22
2023-01-22T01:26:48.125Z,102787.22
2023-01-22T01:29:16.257Z,102792.94
2023-01-22T01:31:43.603Z,102790.97
2023-01-22T01:34:11.199Z,102796.41
2023-01-22T01:36:48.825Z,102798.06
2023-01-22T01:39:17.204Z,102809.53
2023-01-22T01:41:44.809Z,102801.56
2023-01-22T01:44:17.818Z,102799.44
2023-01-22T01:47:01.099Z,102801.72
2023-01-22T01:49:33.906Z,102762.22
2023-01-22T01:52:09.818Z,102799.44
2023-01-22T01:54:40.683Z,102820.44
2023-01-22T01:57:13.348Z,102812.75
2023-01-22T01:59:42.042Z,102820.84
2023-01-22T02:02:09.725Z,102804.41
2023-01-22T02:04:37.088Z,102795.97
2023-01-22T02:07:06.460Z,102802.34
2023-01-22T02:09:35.268Z,102793.28
2023-01-22T02:12:03.327Z,102794.19
2023-01-22T02:14:33.762Z,102806.84
2023-01-22T02:17:21.048Z,102804.44
2023-01-22T02:19:51.140Z,102804.59
2023-01-22T02:22:20.351Z,102770.41
2023-01-22T02:24:47.824Z,102806.09
2023-01-22T02:27:15.378Z,102797.81
2023-01-22T02:29:45.245Z,102797.69
2023-01-22T02:32:13.215Z,102799.34
2023-01-22T02:34:40.951Z,102788.94
2023-01-22T02:37:09.557Z,102800.09
2023-01-22T02:39:36.804Z,102788.19
2023-01-22T02:42:06.525Z,102791.63
2023-01-22T02:44:33.794Z,102788.78
2023-01-22T02:47:01.164Z,102792.69
2023-01-22T02:49:28.748Z,102783.66
2023-01-22T02:51:56.138Z,102794.78
2023-01-22T02:54:24.565Z,102784.41
2023-01-22T02:56:51.841Z,102781.53
2023-01-22T02:59:19.544Z,102790.44
2023-01-22T03:01:47.571Z,102796.63
2023-01-22T03:04:16.101Z,102791.34
2023-01-22T03:06:46.312Z,102795.72
2023-01-22T03:09:17.008Z,102800.69
2023-01-22T03:11:47.117Z,102792.69
2023-01-22T03:14:40.164Z,102796.31
2023-01-22T03:17:27.017Z,102796.16
2023-01-22T03:20:12.723Z,102797.81
2023-01-22T03:22:40.032Z,102801.44
2023-01-22T03:25:07.508Z,102780.03
2023-01-22T03:27:34.914Z,102779.72
2023-01-22T03:30:02.256Z,102782.13
2023-01-22T03:32:33.699Z,102778.22
2023-01-22T03:35:02.068Z,102781.69
2023-01-22T03:37:41.137Z,102788.31
2023-01-22T03:40:10.015Z,102788.91
2023-01-22T03:42:39.220Z,102786.50
2023-01-22T03:45:07.537Z,102788.50
2023-01-22T03:47:37.463Z,102788.34
2023-01-22T03:50:19.102Z,102791.06
2023-01-22T03:52:46.773Z,102789.09
2023-01-22T03:55:14.091Z,102782.16
2023-01-22T03:57:42.362Z,102785.16
2023-01-22T04:00:10.736Z,102790.28
2023-01-22T04:02:43.534Z,102800.09
2023-01-22T04:05:20.854Z,102794.38
2023-01-22T04:07:50.808Z,102795.56
2023-01-22T04:10:21.899Z,102807.31
2023-01-22T04:12:49.660Z,102796.16
2023-01-22T04:15:20.735Z,102781.53
2023-01-22T04:17:49.288Z,102783.50
2023-01-22T04:20:40.829Z,102768.13
2023-01-22T04:23:29.679Z,102798.69
2023-01-22T04:25:57.641Z,102802.75
2023-01-22T04:28:25.427Z,102818.44
2023-01-22T04:30:56.219Z,102808.34
2023-01-22T04:33:44.510Z,102809.38
2023-01-22T04:36:28.683Z,102813.75
2023-01-22T04:38:56.807Z,102817.84
2023-01-22T04:41:23.956Z,102815.13
2023-01-22T04:43:51.164Z,102814.81
2023-01-22T04:46:20.449Z,102810.00
2023-01-22T04:48:47.683Z,102806.06
2023-01-22T04:51:14.974Z,102812.09
2023-01-22T04:53:42.424Z,102802.59
2023-01-22T04:56:09.633Z,102799.28
2023-01-22T04:58:36.844Z,102796.72
2023-01-22T05:01:04.807Z,102811.19
2023-01-22T05:03:33.344Z,102800.03
2023-01-22T05:06:05.868Z,102802.91
2023-01-22T05:08:35.422Z,102811.22
2023-01-22T05:11:03.917Z,102819.50
2023-01-22T05:14:06.600Z,102812.09
2023-01-22T05:16:35.271Z,102818.44
2023-01-22T05:19:02.945Z,102825.38
2023-01-22T05:21:31.957Z,102819.28
2023-01-22T05:23:59.484Z,102814.28
2023-01-22T05:26:29.049Z,102823.97
2023-01-22T05:29:03.970Z,102817.03
2023-01-22T05:31:58.415Z,102834.19
2023-01-22T05:34:30.383Z,102825.41
2023-01-22T05:36:57.977Z,102824.34
2023-01-22T05:39:27.063Z,102819.97
2023-01-22T05:41:55.933Z,102816.69
2023-01-22T05:44:23.512Z,102824.31
2023-01-22T05:46:53.438Z,102827.72
2023-01-22T05:49:23.614Z,102818.41
2023-01-22T05:51:54.581Z,102807.56
2023-01-22T05:54:22.566Z,102809.38
2023-01-22T05:56:50.705Z,102812.13
2023-01-22T05:59:18.243Z,102788.25
2023-01-22T06:01:52.203Z,102806.22
2023-01-22T06:04:20.209Z,102796.13
2023-01-22T06:06:47.437Z,102796.28
2023-01-22T06:09:14.654Z,102797.09
2023-01-22T06:11:42.920Z,102808.06
2023-01-22T06:14:10.741Z,102809.41
2023-01-22T06:16:38.378Z,102799.38
2023-01-22T06:19:05.858Z,102804.47
2023-01-22T06:21:41.097Z,102795.28
2023-01-22T06:24:08.763Z,102799.78
2023-01-22T06:26:36.755Z,102795.09
2023-01-22T06:29:06.934Z,102804.88
2023-01-22T06:31:35.144Z,102799.31
2023-01-22T06:34:06.513Z,102788.91
2023-01-22T06:36:33.877Z,102766.84
2023-01-22T06:39:01.457Z,102775.59
2023-01-22T06:41:42.193Z,102800.13
2023-01-22T06:44:12.164Z,102798.94
2023-01-22T06:46:39.465Z,102805.09
2023-01-22T06:49:12.910Z,102801.91
2023-01-22T06:51:41.167Z,102813.19
2023-01-22T06:54:12.353Z,102819.94
2023-01-22T06:56:39.724Z,102796.03
2023-01-22T06:59:07.239Z,102824.38
2023-01-22T07:01:34.396Z,102832.66
2023-01-22T07:04:01.697Z,102825.69
2023-01-22T07:06:28.906Z,102838.63
2023-01-22T07:08:57.236Z,102820.53
2023-01-22T07:11:24.427Z,102840.03
2023-01-22T07:13:51.693Z,102842.91
2023-01-22T07:16:18.948Z,102853.28
2023-01-22T07:18:46.420Z,102834.66
2023-01-22T07:21:13.715Z,102854.72
2023-01-22T07:23:42.390Z,102855.84
2023-01-22T07:26:09.578Z,102849.97
2023-01-22T07:28:36.862Z,102855.44
2023-01-22T07:31:04.413Z,102853.47
2023-01-22T07:33:32.236Z,102867.97
2023-01-22T07:35:59.389Z,102870.97
2023-01-22T07:38:30.159Z,102865.13
2023-01-22T07:41:02.055Z,102870.59
2023-01-22T07:43:29.415Z,102862.28
2023-01-22T07:45:58.270Z,102864.16
2023-01-22T07:48:26.396Z,102868.97
2023-01-22T07:50:53.607Z,102869.28
2023-01-22T07:53:20.915Z,102866.59
2023-01-22T07:55:48.268Z,102875.19
2023-01-22T07:58:15.403Z,102866.63
2023-01-22T08:00:42.640Z,102868.16
2023-01-22T08:03:14.907Z,102870.09
2023-01-22T08:05:43.446Z,102862.31
2023-01-22T08:08:15.932Z,102869.66
2023-01-22T08:10:44.091Z,102859.91
2023-01-22T08:13:11.218Z,102871.81
2023-01-22T08:15:39.064Z,102863.38
2023-01-22T08:18:07.814Z,102861.56
2023-01-22T08:20:35.171Z,102867.59
2023-01-22T08:23:02.554Z,102871.66
2023-01-22T08:25:29.891Z,102862.31
2023-01-22T08:27:57.223Z,102865.78
2023-01-22T08:30:24.445Z,102871.25
2023-01-22T08:32:51.827Z,102882.09
2023-01-22T08:35:19.795Z,102865.38
2023-01-22T08:37:47.334Z,102871.41
2023-01-22T08:40:26.358Z,102888.13
2023-01-22T08:42:56.391Z,102883.03
2023-01-22T08:45:24.459Z,102881.22
2023-01-22T08:47:59.007Z,102890.09
2023-01-22T08:50:29.130Z,102900.97
2023-01-22T08:52:58.229Z,102896.75
2023-01-22T08:55:28.248Z,102905.50
2023-01-22T08:57:57.130Z,102891.63
2023-01-22T09:00:24.996Z,102917.13
2023-01-22T09:02:52.355Z,102914.13
2023-01-22T09:05:19.604Z,102914.41
2023-01-22T09:07:46.827Z,102914.72
2023-01-22T09:10:14.060Z,102919.41
2023-01-22T09:12:41.603Z,102913.66
2023-01-22T09:15:09.291Z,102921.53
2023-01-22T09:17:36.676Z,102926.50
2023-01-22T09:20:04.164Z,102929.06
2023-01-22T09:22:31.668Z,102931.31
2023-01-22T09:24:59.613Z,102929.66
2023-01-22T09:27:26.904Z,102934.03
2023-01-22T09:29:54.520Z,102946.56
2023-01-22T09:32:21.854Z,102953.03
2023-01-22T09:34:50.251Z,102953.19
2023-01-22T09:37:17.916Z,102962.84
2023-01-22T09:39:45.686Z,102967.38
2023-01-22T09:42:21.239Z,102974.94
2023-01-22T09:44:52.908Z,102977.63
2023-01-22T09:47:34.505Z,102978.41
2023-01-22T09:50:12.716Z,102990.91
2023-01-22T09:52:41.929Z,102987.00
2023-01-22T09:55:15.309Z,102976.59
2023-01-22T09:57:49.066Z,102990.00
2023-01-22T10:01:00.135Z,102989.53
2023-01-22T10:03:50.450Z,102957.56
2023-01-22T10:06:24.054Z,102969.34
2023-01-22T10:09:09.128Z,102993.03
2023-01-22T10:11:42.584Z,102997.72
2023-01-22T10:14:18.544Z,103007.19
2023-01-22T10:16:50.147Z,102996.66
2023-01-22T10:19:37.599Z,102982.16
2023-01-22T10:22:17.887Z,102986.50
2023-01-22T10:24:49.613Z,102978.22
2023-01-22T10:27:28.606Z,102964.53
2023-01-22T10:30:09.421Z,102985.66
2023-01-22T10:32:37.597Z,102976.28
2023-01-22T10:35:21.596Z,102979.63
2023-01-22T10:37:58.749Z,102951.84
2023-01-22T10:40:32.475Z,102972.97
2023-01-22T10:43:06.239Z,102973.44
2023-01-22T10:45:35.669Z,102973.84
2023-01-22T10:48:15.196Z,102957.69
2023-01-22T10:50:47.085Z,102979.47
2023-01-22T10:53:31.179Z,102980.50
2023-01-22T10:56:01.492Z,102971.56
2023-01-22T10:58:37.098Z,102981.22
2023-01-22T11:01:11.387Z,102981.78
2023-01-22T11:03:40.996Z,102978.69
2023-01-22T11:06:17.671Z,102951.47
2023-01-22T11:09:11.051Z,102932.31
2023-01-22T11:11:46.062Z,102976.97
2023-01-22T11:14:26.579Z,102977.53
2023-01-22T11:17:02.884Z,102958.53
2023-01-22T11:19:43.233Z,102975.88
2023-01-22T11:22:21.911Z,102981.16
2023-01-22T11:24:51.218Z,102987.78
2023-01-22T11:27:50.337Z,102987.34
2023-01-22T11:30:47.382Z,102978.69
2023-01-22T11:33:17.620Z,102965.78
2023-01-22T11:35:50.777Z,102973.69
2023-01-22T11:38:27.682Z,102967.56
2023-01-22T11:41:29.483Z,102966.84
2023-01-22T11:44:37.135Z,102964.41
2023-01-22T11:47:25.960Z,102962.41
2023-01-22T11:49:53.731Z,102953.09
2023-01-22T11:52:42.739Z,102954.00
2023-01-22T11:55:58.186Z,102956.03
2023-01-22T11:58:47.878Z,102952.88
2023-01-22T12:01:43.577Z,102958.22
2023-01-22T12:04:38.360Z,102947.50
2023-01-22T12:07:30.311Z,102938.56
2023-01-22T12:10:21.136Z,102934.00
2023-01-22T12:13:09.448Z,102908.09
2023-01-22T12:15:44.706Z,102932.53
2023-01-22T12:18:46.022Z,102938.53
2023-01-22T12:21:29.276Z,102942.50
2023-01-22T12:24:05.216Z,102942.44
2023-01-22T12:26:38.639Z,102927.03
2023-01-22T12:29:31.379Z,102940.34
2023-01-22T12:32:09.304Z,102935.22
2023-01-22T12:35:05.652Z,102914.94
2023-01-22T12:37:44.114Z,102919.56
2023-01-22T12:40:35.796Z,102906.91
2023-01-22T12:43:05.743Z,102900.88
2023-01-22T12:45:51.552Z,102902.34
2023-01-22T12:48:40.327Z,102911.78
2023-01-22T12:51:26.773Z,102909.06
2023-01-22T12:53:54.474Z,102904.66
2023-01-22T12:56:33.163Z,102913.47
2023-01-22T12:59:01.449Z,102906.78
2023-01-22T13:01:35.216Z,102890.66
2023-01-22T13:04:04.339Z,102905.97
2023-01-22T13:06:40.143Z,102897.56
2023-01-22T13:09:24.860Z,102899.75
2023-01-22T13:11:52.250Z,102902.72
2023-01-22T13:14:24.366Z,102900.94
2023-01-22T13:17:00.409Z,102886.28
2023-01-22T13:19:39.644Z,102881.28
2023-01-22T13:22:10.178Z,102885.03
2023-01-22T13:24:37.531Z,102875.78
2023-01-22T13:27:04.955Z,102876.69
2023-01-22T13:29:36.429Z,102862.09
2023-01-22T13:32:16.410Z,102876.59
2023-01-22T13:34:44.879Z,102867.88
2023-01-22T13:37:27.248Z,102883.13
2023-01-22T13:39:57.264Z,102871.44
2023-01-22T13:42:28.540Z,102882.19
2023-01-22T13:45:01.210Z,102880.75
2023-01-22T13:47:36.355Z,102885.44
2023-01-22T13:50:05.098Z,102871.16
2023-01-22T13:52:33.848Z,102857.81
2023-01-22T13:55:16.090Z,102866.91
2023-01-22T13:58:04.748Z,102870.59
2023-01-22T14:00:39.031Z,102880.31
2023-01-22T14:03:21.725Z,102875.78
2023-01-22T14:05:51.731Z,102868.28
2023-01-22T14:08:21.178Z,102856.53
2023-01-22T14:11:00.405Z,102841.38
2023-01-22T14:13:41.369Z,102875.78
2023-01-22T14:16:13.342Z,102862.81
2023-01-22T14:18:41.806Z,102852.03
2023-01-22T14:21:09.941Z,102850.78
2023-01-22T14:23:39.730Z,102837.34
2023-01-22T14:26:09.745Z,102867.00
2023-01-22T14:28:40.691Z,102871.00
2023-01-22T14:31:27.383Z,102876.78
2023-01-22T14:34:11.992Z,102885.31
2023-01-22T14:36:48.364Z,102898.28
2023-01-22T14:39:20.442Z,102905.22
2023-01-22T14:41:59.502Z,102890.50
2023-01-22T14:44:33.039Z,102894.03
2023-01-22T14:47:15.113Z,102875.59
2023-01-22T14:49:43.782Z,102852.72
2023-01-22T14:52:13.310Z,102878.03
2023-01-22T14:54:41.778Z,102889.88
2023-01-22T14:57:09.694Z,102883.38
2023-01-22T14:59:39.965Z,102887.22
2023-01-22T15:02:08.252Z,102881.78
2023-01-22T15:04:36.683Z,102896.75
2023-01-22T15:07:08.445Z,102895.13
2023-01-22T15:09:37.744Z,102901.38
2023-01-22T15:12:12.682Z,102905.19
2023-01-22T15:14:45.144Z,102896.94
2023-01-22T15:17:13.889Z,102908.06
2023-01-22T15:19:42.097Z,102892.41
2023-01-22T15:22:11.408Z,102899.19
2023-01-22T15:24:40.612Z,102893.81
2023-01-22T15:27:09.992Z,102890.38
2023-01-22T15:29:38.110Z,102886.69
2023-01-22T15:32:06.161Z,102898.03
2023-01-22T15:34:34.831Z,102896.25
2023-01-22T15:37:05.068Z,102908.06
2023-01-22T15:39:38.856Z,102912.53
2023-01-22T15:42:14.924Z,102918.50
2023-01-22T15:44:46.952Z,102924.22
2023-01-22T15:47:31.580Z,102911.47
2023-01-22T15:50:05.807Z,102918.78
2023-01-22T15:52:34.117Z,102912.31
2023-01-22T15:55:02.943Z,102908.22
2023-01-22T15:57:35.426Z,102920.31
2023-01-22T16:00:09.489Z,102918.13
2023-01-22T16:02:44.300Z,102916.00
2023-01-22T16:05:15.432Z,102920.25
2023-01-22T16:07:43.667Z,102918.78
2023-01-22T16:10:12.250Z,102926.53
2023-01-22T16:12:43.560Z,102917.44
2023-01-22T16:15:16.584Z,102924.94
2023-01-22T16:17:48.716Z,102912.81
2023-01-22T16:20:18.429Z,102912.81
2023-01-22T16:22:52.691Z,102921.97
2023-01-22T16:25:21.751Z,102914.53
2023-01-22T16:27:51.209Z,102918.22
2023-01-22T16:30:23.793Z,102900.72
2023-01-22T16:32:59.032Z,102926.50
2023-01-22T16:35:30.549Z,102912.22
2023-01-22T16:37:59.925Z,102931.00
2023-01-22T16:40:29.251Z,102917.75
2023-01-22T16:43:11.877Z,102922.44
2023-01-22T16:45:48.615Z,102931.09
2023-01-22T16:48:18.646Z,102931.31
2023-01-22T16:50:50.941Z,102927.59
2023-01-22T16:53:21.067Z,102929.22
2023-01-22T16:55:50.395Z,102921.75
2023-01-22T16:58:19.213Z,102926.34
2023-01-22T17:00:49.034Z,102928.97
2023-01-22T17:03:21.458Z,102926.13
2023-01-22T17:06:24.405Z,102928.59
2023-01-22T17:09:03.681Z,102928.44
2023-01-22T17:11:57.902Z,102906.28
2023-01-22T17:14:36.797Z,102923.41
2023-01-22T17:17:09.083Z,102916.53
2023-01-22T17:19:39.877Z,102925.66
2023-01-22T17:22:14.711Z,102932.44
2023-01-22T17:24:54.981Z,102939.38
2023-01-22T17:27:28.376Z,102940.25
2023-01-22T17:30:07.816Z,102933.03
2023-01-22T17:32:41.563Z,102913.38
2023-01-22T17:35:23.065Z,102936.50
2023-01-22T17:37:58.004Z,102914.28
2023-01-22T17:40:27.966Z,102901.88
2023-01-22T17:42:57.145Z,102933.88
2023-01-22T17:45:25.075Z,102933.34
2023-01-22T17:47:52.812Z,102936.63
2023-01-22T17:50:20.541Z,102942.38
2023-01-22T17:52:48.646Z,102947.91
2023-01-22T17:55:16.453Z,102950.81
2023-01-22T17:57:45.524Z,102938.38
2023-01-22T18:00:14.983Z,102942.41
2023-01-22T18:02:43.350Z,102951.25
2023-01-22T18:05:11.485Z,102958.19
2023-01-22T18:07:39.747Z,102958.66
2023-01-22T18:10:11.011Z,102945.84
2023-01-22T18:12:39.847Z,102964.56
2023-01-22T18:15:10.275Z,102953.00
2023-01-22T18:17:38.207Z,102960.34
2023-01-22T18:20:12.469Z,102959.38
2023-01-22T18:22:41.644Z,102961.66
2023-01-22T18:25:12.032Z,102966.31
2023-01-22T18:27:40.675Z,102973.16
2023-01-22T18:30:10.024Z,102973.66
2023-01-22T18:32:39.893Z,102972.44
2023-01-22T18:35:10.139Z,102978.47
2023-01-22T18:37:40.488Z,102981.28
2023-01-22T18:40:09.590Z,102984.47
2023-01-22T18:42:39.254Z,102985.38
2023-01-22T18:45:12.226Z,102966.41
2023-01-22T18:47:42.858Z,102968.97
2023-01-22T18:50:16.481Z,102980.38
2023-01-22T18:52:47.198Z,102975.56
2023-01-22T18:55:18.234Z,102976.63
2023-01-22T18:57:53.191Z,102970.72
2023-01-22T19:00:23.673Z,102972.22
2023-01-22T19:02:59.168Z,102986.25
2023-01-22T19:05:28.818Z,102979.34
2023-01-22T19:07:57.912Z,102986.44
2023-01-22T19:10:28.896Z,102990.16
2023-01-22T19:13:09.997Z,102987.59
2023-01-22T19:15:39.905Z,102965.38
2023-01-22T19:18:10.545Z,102989.53
2023-01-22T19:20:40.490Z,102982.00
2023-01-22T19:23:08.842Z,102993.66
2023-01-22T19:25:43.533Z,102992.44
2023-01-22T19:28:14.835Z,102978.25
2023-01-22T19:30:43.834Z,102984.13
2023-01-22T19:33:12.418Z,102986.25
2023-01-22T19:35:49.509Z,102976.56
2023-01-22T19:38:21.562Z,102986.50
2023-01-22T19:40:50.176Z,102974.91
2023-01-22T19:43:18.826Z,102989.09
2023-01-22T19:45:49.897Z,102983.69
2023-01-22T19:48:18.954Z,102976.72
2023-01-22T19:50:47.068Z,102987.16
2023-01-22T19:53:15.264Z,102980.34
2023-01-22T19:55:44.289Z,102989.56
2023-01-22T19:58:12.269Z,102980.66
2023-01-22T20:00:42.611Z,102987.47
2023-01-22T20:03:11.670Z,102998.34
2023-01-22T20:05:45.631Z,102993.09
2023-01-22T20:08:14.443Z,102989.88
2023-01-22T20:10:42.176Z,102986.56
2023-01-22T20:13:13.208Z,102996.50
2023-01-22T20:15:44.217Z,102991.06
2023-01-22T20:18:12.872Z,102984.28
2023-01-22T20:20:41.588Z,102986.84
2023-01-22T20:23:10.296Z,102998.59
2023-01-22T20:25:43.250Z,102975.03
2023-01-22T20:28:14.501Z,102964.94
2023-01-22T20:30:43.713Z,102979.72
2023-01-22T20:33:13.356Z,102985.56
2023-01-22T20:35:43.286Z,102989.06
2023-01-22T20:38:14.671Z,102981.38
2023-01-22T20:40:47.320Z,102998.72
2023-01-22T20:43:26.531Z,102985.59
2023-01-22T20:46:05.029Z,102951.78
2023-01-22T20:48:35.622Z,102996.50
2023-01-22T20:51:05.749Z,102992.09
2023-01-22T20:53:34.071Z,102995.88
2023-01-22T20:56:05.061Z,102994.06
2023-01-22T20:58:34.135Z,102992.88
2023-01-22T21:01:10.213Z,102986.66
2023-01-22T21:03:38.376Z,102977.03
2023-01-22T21:06:08.418Z,102980.06
2023-01-22T21:08:36.466Z,102977.13
2023-01-22T21:11:08.584Z,102973.50
2023-01-22T21:13:37.533Z,102975.47
2023-01-22T21:16:15.691Z,102968.50
2023-01-22T21:18:44.870Z,102969.84
2023-01-22T21:21:18.618Z,102964.59
2023-01-22T21:23:52.401Z,102966.22
2023-01-22T21:26:23.954Z,102978.16
2023-01-22T21:29:01.629Z,102956.59
2023-01-22T21:31:30.771Z,102977.59
2023-01-22T21:34:04.429Z,102981.88
2023-01-22T21:36:35.539Z,102990.47
2023-01-22T21:39:06.207Z,102988.81
2023-01-22T21:41:34.328Z,102992.00
2023-01-22T21:44:19.995Z,102989.44
2023-01-22T21:46:47.717Z,102972.53
2023-01-22T21:49:26.441Z,102994.09
2023-01-22T21:52:02.484Z,103005.75
2023-01-22T21:54:39.683Z,103000.16
2023-01-22T21:57:08.901Z,102995.94
2023-01-22T21:59:37.905Z,102971.22
2023-01-22T22:02:06.932Z,102971.03
2023-01-22T22:04:35.109Z,102994.41
2023-01-22T22:07:03.334Z,102998.59
2023-01-22T22:09:31.199Z,103000.56
2023-01-22T22:12:00.835Z,102993.66
2023-01-22T22:14:28.403Z,103001.81
2023-01-22T22:16:56.122Z,102997.09
2023-01-22T22:19:24.911Z,102995.47
2023-01-22T22:21:52.543Z,102994.09
2023-01-22T22:24:20.810Z,103001.47
2023-01-22T22:26:48.193Z,102992.44
2023-01-22T22:29:15.399Z,102997.13
2023-01-22T22:31:42.656Z,102990.03
2023-01-22T22:34:11.173Z,102996.69
2023-01-22T22:36:38.935Z,102991.06
2023-01-22T22:39:09.358Z,102996.34
2023-01-22T22:41:39.090Z,103001.44
2023-01-22T22:44:07.298Z,103011.13
2023-01-22T22:46:37.519Z,102984.44
2023-01-22T22:49:05.949Z,102994.38
2023-01-22T22:51:38.779Z,102994.31
2023-01-22T22:54:12.291Z,102994.63
2023-01-22T22:56:39.433Z,103005.81
2023-01-22T22:59:06.992Z,103000.88
2023-01-22T23:01:37.100Z,102997.81
2023-01-22T23:04:06.282Z,102982.69
2023-01-22T23:06:35.711Z,102977.69
2023-01-22T23:09:11.694Z,102995.78
2023-01-22T23:11:39.715Z,102991.25
2023-01-22T23:14:08.073Z,102965.41
2023-01-22T23:16:38.748Z,102983.69
2023-01-22T23:19:13.782Z,102988.88
2023-01-22T23:21:41.892Z,102986.31
2023-01-22T23:24:11.527Z,102979.50
2023-01-22T23:26:40.464Z,102988.59
2023-01-22T23:29:13.014Z,102966.50
2023-01-22T23:31:40.745Z,102988.88
2023-01-22T23:34:12.751Z,102938.81
2023-01-22T23:36:45.354Z,102990.41
2023-01-22T23:39:14.948Z,102998.72
2023-01-22T23:41:43.532Z,102987.22
2023-01-22T23:44:12.149Z,102982.38
2023-01-22T23:46:39.619Z,102979.22
2023-01-22T23:49:06.815Z,102984.97
2023-01-22T23:51:33.988Z,102984.97
2023-01-22T23:54:01.426Z,102988.13
2023-01-22T23:56:32.449Z,102979.50
2023-01-22T23:58:59.743Z,102967.59
